sensor_id;sensor_type;location;lat;lon;timestamp;temperature;humidity
11214;DHT22;5664;48.606;13.456;2024-01-16T00:02:06;14.70;89.00
11214;DHT22;5664;48.606;13.456;2024-01-16T00:04:33;14.60;89.00
11214;DHT22;5664;48.606;13.456;2024-01-16T00:06:58;14.60;89.20
11214;DHT22;5664;48.606;13.456;2024-01-16T00:09:24;14.60;89.00
11214;DHT22;5664;48.606;13.456;2024-01-16T00:11:49;14.60;88.90
11214;DHT22;5664;48.606;13.456;2024-01-16T00:14:15;14.60;89.00
11214;DHT22;5664;48.606;13.456;2024-01-16T00:16:41;14.50;89.10
11214;DHT22;5664;48.606;13.456;2024-01-16T00:19:07;14.50;89.20
11214;DHT22;5664;48.606;13.456;2024-01-16T00:21:32;14.40;89.20
11214;DHT22;5664;48.606;13.456;2024-01-16T00:23:57;14.50;89.30
11214;DHT22;5664;48.606;13.456;2024-01-16T00:26:23;14.50;89.40
11214;DHT22;5664;48.606;13.456;2024-01-16T00:28:48;14.40;89.50
11214;DHT22;5664;48.606;13.456;2024-01-16T00:31:14;14.40;89.70
11214;DHT22;5664;48.606;13.456;2024-01-16T00:33:40;14.30;89.60
11214;DHT22;5664;48.606;13.456;2024-01-16T00:36:06;14.30;89.50
11214;DHT22;5664;48.606;13.456;2024-01-16T00:38:34;14.30;89.60
11214;DHT22;5664;48.606;13.456;2024-01-16T00:41:00;14.30;89.50
11214;DHT22;5664;48.606;13.456;2024-01-16T00:43:25;14.30;89.80
11214;DHT22;5664;48.606;13.456;2024-01-16T00:45:51;14.30;90.20
11214;DHT22;5664;48.606;13.456;2024-01-16T00:48:16;14.20;89.90
11214;DHT22;5664;48.606;13.456;2024-01-16T00:50:43;14.20;90.00
11214;DHT22;5664;48.606;13.456;2024-01-16T00:53:08;14.20;90.00
11214;DHT22;5664;48.606;13.456;2024-01-16T00:55:34;14.00;90.60
11214;DHT22;5664;48.606;13.456;2024-01-16T00:57:59;14.10;90.00
11214;DHT22;5664;48.606;13.456;2024-01-16T01:00:26;14.20;90.00
11214;DHT22;5664;48.606;13.456;2024-01-16T01:02:51;14.10;90.10
11214;DHT22;5664;48.606;13.456;2024-01-16T01:05:17;14.10;90.00
11214;DHT22;5664;48.606;13.456;2024-01-16T01:07:42;14.40;90.20
11214;DHT22;5664;48.606;13.456;2024-01-16T01:10:08;14.10;90.10
11214;DHT22;5664;48.606;13.456;2024-01-16T01:12:33;14.00;90.10
11214;DHT22;5664;48.606;13.456;2024-01-16T01:14:59;14.00;90.20
11214;DHT22;5664;48.606;13.456;2024-01-16T01:17:24;14.00;90.10
11214;DHT22;5664;48.606;13.456;2024-01-16T01:19:50;14.00;90.20
11214;DHT22;5664;48.606;13.456;2024-01-16T01:22:15;13.90;90.10
11214;DHT22;5664;48.606;13.456;2024-01-16T01:24:41;14.00;90.20
11214;DHT22;5664;48.606;13.456;2024-01-16T01:27:06;13.90;90.20
11214;DHT22;5664;48.606;13.456;2024-01-16T01:29:31;13.90;90.30
11214;DHT22;5664;48.606;13.456;2024-01-16T01:31:57;13.90;90.40
11214;DHT22;5664;48.606;13.456;2024-01-16T01:34:22;13.90;90.30
11214;DHT22;5664;48.606;13.456;2024-01-16T01:36:48;13.80;90.40
11214;DHT22;5664;48.606;13.456;2024-01-16T01:39:13;13.80;90.40
11214;DHT22;5664;48.606;13.456;2024-01-16T01:41:39;13.80;90.30
11214;DHT22;5664;48.606;13.456;2024-01-16T01:44:05;13.80;90.40
11214;DHT22;5664;48.606;13.456;2024-01-16T01:46:31;13.80;90.40
11214;DHT22;5664;48.606;13.456;2024-01-16T01:48:57;13.80;90.30
11214;DHT22;5664;48.606;13.456;2024-01-16T01:51:22;13.90;90.40
11214;DHT22;5664;48.606;13.456;2024-01-16T01:53:49;13.90;90.30
11214;DHT22;5664;48.606;13.456;2024-01-16T01:56:15;13.90;90.20
11214;DHT22;5664;48.606;13.456;2024-01-16T01:58:46;13.90;90.30
11214;DHT22;5664;48.606;13.456;2024-01-16T02:01:11;13.90;90.20
11214;DHT22;5664;48.606;13.456;2024-01-16T02:03:45;13.80;90.20
11214;DHT22;5664;48.606;13.456;2024-01-16T02:06:11;13.80;90.20
11214;DHT22;5664;48.606;13.456;2024-01-16T02:08:37;13.90;90.30
11214;DHT22;5664;48.606;13.456;2024-01-16T02:11:03;13.80;90.30
11214;DHT22;5664;48.606;13.456;2024-01-16T02:13:29;13.80;90.40
11214;DHT22;5664;48.606;13.456;2024-01-16T02:15:54;13.80;90.40
11214;DHT22;5664;48.606;13.456;2024-01-16T02:18:20;13.80;90.40
11214;DHT22;5664;48.606;13.456;2024-01-16T02:20:45;13.80;90.50
11214;DHT22;5664;48.606;13.456;2024-01-16T02:23:13;13.80;90.40
11214;DHT22;5664;48.606;13.456;2024-01-16T02:25:39;13.70;90.50
11214;DHT22;5664;48.606;13.456;2024-01-16T02:28:05;13.80;90.60
11214;DHT22;5664;48.606;13.456;2024-01-16T02:30:30;13.70;90.60
11214;DHT22;5664;48.606;13.456;2024-01-16T02:32:56;13.70;90.70
11214;DHT22;5664;48.606;13.456;2024-01-16T02:35:21;13.70;90.70
11214;DHT22;5664;48.606;13.456;2024-01-16T02:37:47;13.70;90.70
11214;DHT22;5664;48.606;13.456;2024-01-16T02:40:12;13.70;90.80
11214;DHT22;5664;48.606;13.456;2024-01-16T02:42:38;13.70;90.80
11214;DHT22;5664;48.606;13.456;2024-01-16T02:45:04;13.70;90.90
11214;DHT22;5664;48.606;13.456;2024-01-16T02:47:30;13.70;90.90
11214;DHT22;5664;48.606;13.456;2024-01-16T02:49:55;13.70;91.00
11214;DHT22;5664;48.606;13.456;2024-01-16T02:52:21;13.70;90.90
11214;DHT22;5664;48.606;13.456;2024-01-16T02:54:46;13.70;90.90
11214;DHT22;5664;48.606;13.456;2024-01-16T02:57:15;13.70;90.90
11214;DHT22;5664;48.606;13.456;2024-01-16T02:59:43;13.60;90.80
11214;DHT22;5664;48.606;13.456;2024-01-16T03:02:08;13.70;90.90
11214;DHT22;5664;48.606;13.456;2024-01-16T03:04:35;13.80;91.00
11214;DHT22;5664;48.606;13.456;2024-01-16T03:07:00;13.70;91.00
11214;DHT22;5664;48.606;13.456;2024-01-16T03:09:26;13.60;91.10
11214;DHT22;5664;48.606;13.456;2024-01-16T03:11:51;13.70;91.00
11214;DHT22;5664;48.606;13.456;2024-01-16T03:14:17;13.70;91.10
11214;DHT22;5664;48.606;13.456;2024-01-16T03:16:43;13.70;91.00
11214;DHT22;5664;48.606;13.456;2024-01-16T03:19:09;13.70;91.20
11214;DHT22;5664;48.606;13.456;2024-01-16T03:21:35;13.70;91.20
11214;DHT22;5664;48.606;13.456;2024-01-16T03:24:00;13.70;91.30
11214;DHT22;5664;48.606;13.456;2024-01-16T03:26:26;13.70;91.30
11214;DHT22;5664;48.606;13.456;2024-01-16T03:28:51;13.70;91.50
11214;DHT22;5664;48.606;13.456;2024-01-16T03:31:17;13.70;91.40
11214;DHT22;5664;48.606;13.456;2024-01-16T03:33:44;13.70;91.60
11214;DHT22;5664;48.606;13.456;2024-01-16T03:36:10;13.70;91.80
11214;DHT22;5664;48.606;13.456;2024-01-16T03:38:37;13.70;92.00
11214;DHT22;5664;48.606;13.456;2024-01-16T03:41:03;13.70;92.30
11214;DHT22;5664;48.606;13.456;2024-01-16T03:43:29;13.60;92.60
11214;DHT22;5664;48.606;13.456;2024-01-16T03:45:57;13.70;93.20
11214;DHT22;5664;48.606;13.456;2024-01-16T03:50:48;13.70;93.70
11214;DHT22;5664;48.606;13.456;2024-01-16T03:53:14;13.70;94.00
11214;DHT22;5664;48.606;13.456;2024-01-16T03:55:39;13.70;94.00
11214;DHT22;5664;48.606;13.456;2024-01-16T03:58:05;13.70;94.00
11214;DHT22;5664;48.606;13.456;2024-01-16T04:00:30;13.70;93.90
11214;DHT22;5664;48.606;13.456;2024-01-16T04:02:56;13.70;93.90
11214;DHT22;5664;48.606;13.456;2024-01-16T04:05:21;13.70;93.90
11214;DHT22;5664;48.606;13.456;2024-01-16T04:07:47;13.70;94.00
11214;DHT22;5664;48.606;13.456;2024-01-16T04:10:12;13.70;93.90
11214;DHT22;5664;48.606;13.456;2024-01-16T04:12:38;13.70;93.90
11214;DHT22;5664;48.606;13.456;2024-01-16T04:15:03;13.20;94.20
11214;DHT22;5664;48.606;13.456;2024-01-16T04:17:29;13.70;93.60
11214;DHT22;5664;48.606;13.456;2024-01-16T04:19:54;13.70;93.60
11214;DHT22;5664;48.606;13.456;2024-01-16T04:22:20;13.70;93.60
11214;DHT22;5664;48.606;13.456;2024-01-16T04:24:45;13.70;93.40
11214;DHT22;5664;48.606;13.456;2024-01-16T04:27:12;13.70;93.30
11214;DHT22;5664;48.606;13.456;2024-01-16T04:29:37;13.50;92.90
11214;DHT22;5664;48.606;13.456;2024-01-16T04:32:03;13.70;93.60
11214;DHT22;5664;48.606;13.456;2024-01-16T04:34:29;13.70;92.40
11214;DHT22;5664;48.606;13.456;2024-01-16T04:36:55;13.70;92.30
11214;DHT22;5664;48.606;13.456;2024-01-16T04:39:21;13.70;92.10
11214;DHT22;5664;48.606;13.456;2024-01-16T04:41:51;13.70;92.00
11214;DHT22;5664;48.606;13.456;2024-01-16T04:44:16;13.60;91.80
11214;DHT22;5664;48.606;13.456;2024-01-16T04:46:41;13.70;91.90
11214;DHT22;5664;48.606;13.456;2024-01-16T04:49:07;13.70;91.90
11214;DHT22;5664;48.606;13.456;2024-01-16T04:51:32;13.70;91.80
11214;DHT22;5664;48.606;13.456;2024-01-16T04:53:58;13.70;91.70
11214;DHT22;5664;48.606;13.456;2024-01-16T04:56:23;13.60;91.60
11214;DHT22;5664;48.606;13.456;2024-01-16T04:58:49;13.70;91.50
11214;DHT22;5664;48.606;13.456;2024-01-16T05:01:14;13.70;91.50
11214;DHT22;5664;48.606;13.456;2024-01-16T05:03:40;13.70;91.50
11214;DHT22;5664;48.606;13.456;2024-01-16T05:06:11;13.70;91.40
11214;DHT22;5664;48.606;13.456;2024-01-16T05:08:37;13.60;91.40
11214;DHT22;5664;48.606;13.456;2024-01-16T05:11:02;13.60;91.30
11214;DHT22;5664;48.606;13.456;2024-01-16T05:13:28;13.60;91.30
11214;DHT22;5664;48.606;13.456;2024-01-16T05:15:53;13.70;91.20
11214;DHT22;5664;48.606;13.456;2024-01-16T05:18:19;13.60;91.20
11214;DHT22;5664;48.606;13.456;2024-01-16T05:20:44;13.60;91.10
11214;DHT22;5664;48.606;13.456;2024-01-16T05:23:10;13.60;91.10
11214;DHT22;5664;48.606;13.456;2024-01-16T05:25:35;13.70;91.00
11214;DHT22;5664;48.606;13.456;2024-01-16T05:28:01;13.70;91.00
11214;DHT22;5664;48.606;13.456;2024-01-16T05:30:26;13.60;90.90
11214;DHT22;5664;48.606;13.456;2024-01-16T05:32:52;13.70;91.20
11214;DHT22;5664;48.606;13.456;2024-01-16T05:35:17;13.70;90.80
11214;DHT22;5664;48.606;13.456;2024-01-16T05:37:43;13.70;90.90
11214;DHT22;5664;48.606;13.456;2024-01-16T05:40:08;13.70;90.80
11214;DHT22;5664;48.606;13.456;2024-01-16T05:42:34;13.70;90.80
11214;DHT22;5664;48.606;13.456;2024-01-16T05:45:00;13.70;90.80
11214;DHT22;5664;48.606;13.456;2024-01-16T05:47:25;13.80;90.80
11214;DHT22;5664;48.606;13.456;2024-01-16T05:49:53;13.70;90.80
11214;DHT22;5664;48.606;13.456;2024-01-16T05:52:19;13.60;90.70
11214;DHT22;5664;48.606;13.456;2024-01-16T05:54:44;13.70;90.80
11214;DHT22;5664;48.606;13.456;2024-01-16T05:57:10;13.60;90.70
11214;DHT22;5664;48.606;13.456;2024-01-16T05:59:35;13.60;90.70
11214;DHT22;5664;48.606;13.456;2024-01-16T06:02:01;13.60;90.70
11214;DHT22;5664;48.606;13.456;2024-01-16T06:04:26;13.60;90.60
11214;DHT22;5664;48.606;13.456;2024-01-16T06:06:52;13.60;90.60
11214;DHT22;5664;48.606;13.456;2024-01-16T06:09:17;13.60;90.60
11214;DHT22;5664;48.606;13.456;2024-01-16T06:11:43;14.00;90.70
11214;DHT22;5664;48.606;13.456;2024-01-16T06:14:09;13.60;90.60
11214;DHT22;5664;48.606;13.456;2024-01-16T06:16:35;13.70;90.70
11214;DHT22;5664;48.606;13.456;2024-01-16T06:19:01;13.60;90.60
11214;DHT22;5664;48.606;13.456;2024-01-16T06:21:26;13.60;90.60
11214;DHT22;5664;48.606;13.456;2024-01-16T06:23:52;13.60;90.50
11214;DHT22;5664;48.606;13.456;2024-01-16T06:26:18;13.50;90.50
11214;DHT22;5664;48.606;13.456;2024-01-16T06:28:43;13.50;90.50
11214;DHT22;5664;48.606;13.456;2024-01-16T06:31:09;13.50;90.60
11214;DHT22;5664;48.606;13.456;2024-01-16T06:33:35;13.50;90.60
11214;DHT22;5664;48.606;13.456;2024-01-16T06:36:01;13.50;90.60
11214;DHT22;5664;48.606;13.456;2024-01-16T06:38:26;13.40;90.60
11214;DHT22;5664;48.606;13.456;2024-01-16T06:40:52;13.50;90.70
11214;DHT22;5664;48.606;13.456;2024-01-16T06:43:18;13.40;90.70
11214;DHT22;5664;48.606;13.456;2024-01-16T06:45:43;13.50;90.70
11214;DHT22;5664;48.606;13.456;2024-01-16T06:48:09;13.70;90.90
11214;DHT22;5664;48.606;13.456;2024-01-16T06:50:35;13.50;90.80
11214;DHT22;5664;48.606;13.456;2024-01-16T06:53:01;13.70;91.00
11214;DHT22;5664;48.606;13.456;2024-01-16T06:55:26;13.60;90.90
11214;DHT22;5664;48.606;13.456;2024-01-16T06:57:52;13.40;91.00
11214;DHT22;5664;48.606;13.456;2024-01-16T07:00:17;13.40;91.00
11214;DHT22;5664;48.606;13.456;2024-01-16T07:02:43;13.40;91.00
11214;DHT22;5664;48.606;13.456;2024-01-16T07:05:09;13.40;91.00
11214;DHT22;5664;48.606;13.456;2024-01-16T07:07:34;13.30;91.00
11214;DHT22;5664;48.606;13.456;2024-01-16T07:10:00;13.40;91.10
11214;DHT22;5664;48.606;13.456;2024-01-16T07:12:27;13.40;91.10
11214;DHT22;5664;48.606;13.456;2024-01-16T07:14:52;13.30;91.00
11214;DHT22;5664;48.606;13.456;2024-01-16T07:17:18;13.30;91.00
11214;DHT22;5664;48.606;13.456;2024-01-16T07:19:43;13.40;91.10
11214;DHT22;5664;48.606;13.456;2024-01-16T07:22:09;13.30;91.10
11214;DHT22;5664;48.606;13.456;2024-01-16T07:24:34;13.40;91.30
11214;DHT22;5664;48.606;13.456;2024-01-16T07:27:00;13.50;91.60
11214;DHT22;5664;48.606;13.456;2024-01-16T07:29:25;13.80;91.20
11214;DHT22;5664;48.606;13.456;2024-01-16T07:31:51;14.20;90.50
11214;DHT22;5664;48.606;13.456;2024-01-16T07:34:17;14.70;89.10
11214;DHT22;5664;48.606;13.456;2024-01-16T07:36:47;15.10;86.90
11214;DHT22;5664;48.606;13.456;2024-01-16T07:39:12;15.50;84.90
11214;DHT22;5664;48.606;13.456;2024-01-16T07:41:39;15.80;83.30
11214;DHT22;5664;48.606;13.456;2024-01-16T07:44:05;16.10;82.00
11214;DHT22;5664;48.606;13.456;2024-01-16T07:46:30;16.20;81.20
11214;DHT22;5664;48.606;13.456;2024-01-16T07:48:56;16.30;80.80
11214;DHT22;5664;48.606;13.456;2024-01-16T07:51:21;16.30;81.10
11214;DHT22;5664;48.606;13.456;2024-01-16T07:53:47;16.30;81.20
11214;DHT22;5664;48.606;13.456;2024-01-16T07:56:14;16.20;81.30
11214;DHT22;5664;48.606;13.456;2024-01-16T07:58:39;16.10;81.80
11214;DHT22;5664;48.606;13.456;2024-01-16T08:01:05;16.00;82.20
11214;DHT22;5664;48.606;13.456;2024-01-16T08:03:30;15.80;82.90
11214;DHT22;5664;48.606;13.456;2024-01-16T08:05:56;15.70;83.70
11214;DHT22;5664;48.606;13.456;2024-01-16T08:08:22;15.60;84.60
11214;DHT22;5664;48.606;13.456;2024-01-16T08:10:48;15.40;85.30
11214;DHT22;5664;48.606;13.456;2024-01-16T08:13:13;15.30;86.20
11214;DHT22;5664;48.606;13.456;2024-01-16T08:15:39;15.20;87.90
11214;DHT22;5664;48.606;13.456;2024-01-16T08:18:04;15.10;87.80
11214;DHT22;5664;48.606;13.456;2024-01-16T08:20:30;14.90;88.40
11214;DHT22;5664;48.606;13.456;2024-01-16T08:22:55;14.90;89.50
11214;DHT22;5664;48.606;13.456;2024-01-16T08:25:21;14.60;86.50
11214;DHT22;5664;48.606;13.456;2024-01-16T08:27:46;14.60;88.00
11214;DHT22;5664;48.606;13.456;2024-01-16T08:30:12;14.50;88.60
11214;DHT22;5664;48.606;13.456;2024-01-16T08:32:37;14.40;89.20
11214;DHT22;5664;48.606;13.456;2024-01-16T08:35:03;14.60;90.00
11214;DHT22;5664;48.606;13.456;2024-01-16T08:37:31;14.30;90.00
11214;DHT22;5664;48.606;13.456;2024-01-16T08:39:57;14.30;90.20
11214;DHT22;5664;48.606;13.456;2024-01-16T08:42:22;14.20;90.60
11214;DHT22;5664;48.606;13.456;2024-01-16T08:44:48;14.10;90.70
11214;DHT22;5664;48.606;13.456;2024-01-16T08:47:13;14.10;91.10
11214;DHT22;5664;48.606;13.456;2024-01-16T08:49:39;14.10;91.00
11214;DHT22;5664;48.606;13.456;2024-01-16T08:52:05;14.00;91.10
11214;DHT22;5664;48.606;13.456;2024-01-16T08:54:31;14.00;91.20
11214;DHT22;5664;48.606;13.456;2024-01-16T08:56:57;14.00;91.50
11214;DHT22;5664;48.606;13.456;2024-01-16T08:59:23;14.00;91.70
11214;DHT22;5664;48.606;13.456;2024-01-16T09:01:49;14.00;92.00
11214;DHT22;5664;48.606;13.456;2024-01-16T09:04:14;14.00;92.20
11214;DHT22;5664;48.606;13.456;2024-01-16T09:06:40;14.00;92.40
11214;DHT22;5664;48.606;13.456;2024-01-16T09:09:05;14.00;92.60
11214;DHT22;5664;48.606;13.456;2024-01-16T09:11:31;14.10;92.50
11214;DHT22;5664;48.606;13.456;2024-01-16T09:13:57;14.10;92.70
11214;DHT22;5664;48.606;13.456;2024-01-16T09:16:23;14.20;92.90
11214;DHT22;5664;48.606;13.456;2024-01-16T09:18:48;14.20;93.20
11214;DHT22;5664;48.606;13.456;2024-01-16T09:21:14;14.30;93.30
11214;DHT22;5664;48.606;13.456;2024-01-16T09:23:39;14.40;93.60
11214;DHT22;5664;48.606;13.456;2024-01-16T09:26:05;14.40;93.80
11214;DHT22;5664;48.606;13.456;2024-01-16T09:28:30;14.50;93.90
11214;DHT22;5664;48.606;13.456;2024-01-16T09:30:56;14.50;94.10
11214;DHT22;5664;48.606;13.456;2024-01-16T09:33:22;14.60;94.10
11214;DHT22;5664;48.606;13.456;2024-01-16T09:35:48;14.60;94.50
11214;DHT22;5664;48.606;13.456;2024-01-16T09:38:13;14.60;95.00
11214;DHT22;5664;48.606;13.456;2024-01-16T09:40:39;14.60;97.70
11214;DHT22;5664;48.606;13.456;2024-01-16T09:43:05;14.50;94.10
11214;DHT22;5664;48.606;13.456;2024-01-16T09:45:33;14.50;94.50
11214;DHT22;5664;48.606;13.456;2024-01-16T09:48:02;14.50;94.60
11214;DHT22;5664;48.606;13.456;2024-01-16T09:50:28;14.50;92.60
11214;DHT22;5664;48.606;13.456;2024-01-16T09:52:53;14.50;91.80
11214;DHT22;5664;48.606;13.456;2024-01-16T09:55:19;14.50;91.40
11214;DHT22;5664;48.606;13.456;2024-01-16T09:57:46;14.40;89.00
11214;DHT22;5664;48.606;13.456;2024-01-16T10:00:16;14.40;86.80
11214;DHT22;5664;48.606;13.456;2024-01-16T10:02:42;14.30;87.30
11214;DHT22;5664;48.606;13.456;2024-01-16T10:05:09;14.30;87.70
11214;DHT22;5664;48.606;13.456;2024-01-16T10:07:38;14.20;87.60
11214;DHT22;5664;48.606;13.456;2024-01-16T10:10:04;14.30;87.90
11214;DHT22;5664;48.606;13.456;2024-01-16T10:12:30;14.20;88.20
11214;DHT22;5664;48.606;13.456;2024-01-16T10:14:56;14.20;88.40
11214;DHT22;5664;48.606;13.456;2024-01-16T10:17:21;14.20;88.80
11214;DHT22;5664;48.606;13.456;2024-01-16T10:19:51;14.30;88.70
11214;DHT22;5664;48.606;13.456;2024-01-16T10:22:21;14.10;88.60
11214;DHT22;5664;48.606;13.456;2024-01-16T10:24:48;14.10;88.80
11214;DHT22;5664;48.606;13.456;2024-01-16T10:27:15;14.10;89.40
11214;DHT22;5664;48.606;13.456;2024-01-16T10:29:54;14.10;89.50
11214;DHT22;5664;48.606;13.456;2024-01-16T10:32:30;14.10;89.80
11214;DHT22;5664;48.606;13.456;2024-01-16T10:35:05;14.10;89.90
11214;DHT22;5664;48.606;13.456;2024-01-16T10:37:45;14.10;90.10
11214;DHT22;5664;48.606;13.456;2024-01-16T10:40:14;14.10;90.10
11214;DHT22;5664;48.606;13.456;2024-01-16T10:42:39;14.20;90.20
11214;DHT22;5664;48.606;13.456;2024-01-16T10:45:05;14.20;90.30
11214;DHT22;5664;48.606;13.456;2024-01-16T10:47:31;14.10;90.30
11214;DHT22;5664;48.606;13.456;2024-01-16T10:50:00;14.10;90.60
11214;DHT22;5664;48.606;13.456;2024-01-16T10:52:27;14.20;90.60
11214;DHT22;5664;48.606;13.456;2024-01-16T10:54:53;14.30;90.50
11214;DHT22;5664;48.606;13.456;2024-01-16T10:57:22;14.30;90.30
11214;DHT22;5664;48.606;13.456;2024-01-16T10:59:50;14.30;90.30
11214;DHT22;5664;48.606;13.456;2024-01-16T11:02:19;14.20;90.10
11214;DHT22;5664;48.606;13.456;2024-01-16T11:04:45;14.40;90.40
11214;DHT22;5664;48.606;13.456;2024-01-16T11:07:13;14.40;90.50
11214;DHT22;5664;48.606;13.456;2024-01-16T11:09:38;14.40;90.50
11214;DHT22;5664;48.606;13.456;2024-01-16T11:12:05;14.30;90.70
11214;DHT22;5664;48.606;13.456;2024-01-16T11:14:31;14.30;90.60
11214;DHT22;5664;48.606;13.456;2024-01-16T11:16:56;14.30;90.80
11214;DHT22;5664;48.606;13.456;2024-01-16T11:19:23;14.30;90.80
11214;DHT22;5664;48.606;13.456;2024-01-16T11:21:49;14.30;91.00
11214;DHT22;5664;48.606;13.456;2024-01-16T11:24:14;14.30;91.20
11214;DHT22;5664;48.606;13.456;2024-01-16T11:26:40;14.30;91.10
11214;DHT22;5664;48.606;13.456;2024-01-16T11:31:50;14.40;91.10
11214;DHT22;5664;48.606;13.456;2024-01-16T11:34:15;14.40;91.30
11214;DHT22;5664;48.606;13.456;2024-01-16T11:37:01;14.50;91.10
11214;DHT22;5664;48.606;13.456;2024-01-16T11:39:28;14.50;91.10
11214;DHT22;5664;48.606;13.456;2024-01-16T11:41:58;14.40;91.00
11214;DHT22;5664;48.606;13.456;2024-01-16T11:44:36;14.50;91.00
11214;DHT22;5664;48.606;13.456;2024-01-16T11:47:06;14.50;91.10
11214;DHT22;5664;48.606;13.456;2024-01-16T11:49:34;14.70;92.30
11214;DHT22;5664;48.606;13.456;2024-01-16T11:52:00;14.70;91.20
11214;DHT22;5664;48.606;13.456;2024-01-16T11:54:26;14.70;91.10
11214;DHT22;5664;48.606;13.456;2024-01-16T11:59:32;14.80;91.10
11214;DHT22;5664;48.606;13.456;2024-01-16T12:02:05;14.90;91.20
11214;DHT22;5664;48.606;13.456;2024-01-16T12:04:34;14.90;91.20
11214;DHT22;5664;48.606;13.456;2024-01-16T12:07:00;15.00;91.20
11214;DHT22;5664;48.606;13.456;2024-01-16T12:09:26;15.00;91.10
11214;DHT22;5664;48.606;13.456;2024-01-16T12:12:01;15.00;91.50
11214;DHT22;5664;48.606;13.456;2024-01-16T12:14:27;15.00;91.60
11214;DHT22;5664;48.606;13.456;2024-01-16T12:17:07;15.20;92.20
11214;DHT22;5664;48.606;13.456;2024-01-16T12:19:33;15.50;92.20
11214;DHT22;5664;48.606;13.456;2024-01-16T12:21:59;15.50;92.10
11214;DHT22;5664;48.606;13.456;2024-01-16T12:24:24;15.90;92.10
11214;DHT22;5664;48.606;13.456;2024-01-16T12:26:50;16.30;91.90
11214;DHT22;5664;48.606;13.456;2024-01-16T12:29:17;16.40;91.20
11214;DHT22;5664;48.606;13.456;2024-01-16T12:31:42;16.60;90.80
11214;DHT22;5664;48.606;13.456;2024-01-16T12:34:09;17.00;90.40
11214;DHT22;5664;48.606;13.456;2024-01-16T12:36:37;16.90;90.00
11214;DHT22;5664;48.606;13.456;2024-01-16T12:39:03;17.00;90.00
11214;DHT22;5664;48.606;13.456;2024-01-16T12:41:30;17.10;89.60
11214;DHT22;5664;48.606;13.456;2024-01-16T12:43:58;17.10;89.40
11214;DHT22;5664;48.606;13.456;2024-01-16T12:46:23;17.20;89.60
11214;DHT22;5664;48.606;13.456;2024-01-16T12:48:49;17.20;89.60
11214;DHT22;5664;48.606;13.456;2024-01-16T12:51:21;17.30;89.40
11214;DHT22;5664;48.606;13.456;2024-01-16T12:53:49;17.40;89.40
11214;DHT22;5664;48.606;13.456;2024-01-16T12:56:18;17.50;89.40
11214;DHT22;5664;48.606;13.456;2024-01-16T12:58:43;17.70;89.30
11214;DHT22;5664;48.606;13.456;2024-01-16T13:01:22;17.70;89.20
11214;DHT22;5664;48.606;13.456;2024-01-16T13:03:48;17.50;72.50
11214;DHT22;5664;48.606;13.456;2024-01-16T13:06:17;17.40;81.50
11214;DHT22;5664;48.606;13.456;2024-01-16T13:08:50;17.30;85.10
11214;DHT22;5664;48.606;13.456;2024-01-16T13:11:16;17.40;86.30
11214;DHT22;5664;48.606;13.456;2024-01-16T13:13:48;17.40;87.10
11214;DHT22;5664;48.606;13.456;2024-01-16T13:16:13;17.50;87.40
11214;DHT22;5664;48.606;13.456;2024-01-16T13:18:39;17.50;87.30
11214;DHT22;5664;48.606;13.456;2024-01-16T13:21:04;17.60;87.70
11214;DHT22;5664;48.606;13.456;2024-01-16T13:23:31;17.60;87.70
11214;DHT22;5664;48.606;13.456;2024-01-16T13:25:56;17.60;87.80
11214;DHT22;5664;48.606;13.456;2024-01-16T13:28:24;17.70;87.70
11214;DHT22;5664;48.606;13.456;2024-01-16T13:30:50;17.70;87.70
11214;DHT22;5664;48.606;13.456;2024-01-16T13:33:16;17.70;87.60
11214;DHT22;5664;48.606;13.456;2024-01-16T13:35:45;17.80;87.70
11214;DHT22;5664;48.606;13.456;2024-01-16T13:38:12;17.80;87.40
11214;DHT22;5664;48.606;13.456;2024-01-16T13:40:38;17.80;87.50
11214;DHT22;5664;48.606;13.456;2024-01-16T13:43:04;17.90;87.60
11214;DHT22;5664;48.606;13.456;2024-01-16T13:45:29;17.90;87.40
11214;DHT22;5664;48.606;13.456;2024-01-16T13:47:55;17.90;87.80
11214;DHT22;5664;48.606;13.456;2024-01-16T13:50:21;18.00;88.00
11214;DHT22;5664;48.606;13.456;2024-01-16T13:52:46;18.10;87.80
11214;DHT22;5664;48.606;13.456;2024-01-16T13:55:12;18.10;87.50
11214;DHT22;5664;48.606;13.456;2024-01-16T13:57:37;18.10;87.60
11214;DHT22;5664;48.606;13.456;2024-01-16T14:00:07;18.20;87.10
11214;DHT22;5664;48.606;13.456;2024-01-16T14:02:32;18.20;87.00
11214;DHT22;5664;48.606;13.456;2024-01-16T14:05:02;18.20;87.20
11214;DHT22;5664;48.606;13.456;2024-01-16T14:07:28;18.20;87.00
11214;DHT22;5664;48.606;13.456;2024-01-16T14:09:54;18.20;87.60
11214;DHT22;5664;48.606;13.456;2024-01-16T14:12:19;18.30;87.80
11214;DHT22;5664;48.606;13.456;2024-01-16T14:14:45;18.30;87.90
11214;DHT22;5664;48.606;13.456;2024-01-16T14:17:12;18.30;87.80
11214;DHT22;5664;48.606;13.456;2024-01-16T14:19:38;18.30;87.50
11214;DHT22;5664;48.606;13.456;2024-01-16T14:22:03;18.30;88.00
11214;DHT22;5664;48.606;13.456;2024-01-16T14:24:29;18.30;88.20
11214;DHT22;5664;48.606;13.456;2024-01-16T14:26:55;18.30;87.80
11214;DHT22;5664;48.606;13.456;2024-01-16T14:29:23;18.30;87.80
11214;DHT22;5664;48.606;13.456;2024-01-16T14:31:48;18.30;88.40
11214;DHT22;5664;48.606;13.456;2024-01-16T14:34:14;18.30;87.70
11214;DHT22;5664;48.606;13.456;2024-01-16T14:36:40;18.30;87.50
11214;DHT22;5664;48.606;13.456;2024-01-16T14:39:06;18.30;87.60
11214;DHT22;5664;48.606;13.456;2024-01-16T14:41:32;18.30;88.00
11214;DHT22;5664;48.606;13.456;2024-01-16T14:43:57;18.30;88.10
11214;DHT22;5664;48.606;13.456;2024-01-16T14:46:23;18.40;87.80
11214;DHT22;5664;48.606;13.456;2024-01-16T14:48:48;18.30;87.90
11214;DHT22;5664;48.606;13.456;2024-01-16T14:51:14;18.30;88.10
11214;DHT22;5664;48.606;13.456;2024-01-16T14:53:39;18.30;88.30
11214;DHT22;5664;48.606;13.456;2024-01-16T14:56:05;18.30;88.60
11214;DHT22;5664;48.606;13.456;2024-01-16T14:58:31;18.30;89.20
11214;DHT22;5664;48.606;13.456;2024-01-16T15:00:56;18.30;88.20
11214;DHT22;5664;48.606;13.456;2024-01-16T15:03:23;18.40;88.60
11214;DHT22;5664;48.606;13.456;2024-01-16T15:05:49;18.30;88.40
11214;DHT22;5664;48.606;13.456;2024-01-16T15:08:15;18.20;88.50
11214;DHT22;5664;48.606;13.456;2024-01-16T15:10:41;18.30;88.40
11214;DHT22;5664;48.606;13.456;2024-01-16T15:13:07;18.20;89.10
11214;DHT22;5664;48.606;13.456;2024-01-16T15:15:34;18.20;88.90
11214;DHT22;5664;48.606;13.456;2024-01-16T15:17:59;18.20;89.00
11214;DHT22;5664;48.606;13.456;2024-01-16T15:20:25;18.20;89.20
11214;DHT22;5664;48.606;13.456;2024-01-16T15:22:50;18.20;88.90
11214;DHT22;5664;48.606;13.456;2024-01-16T15:25:18;18.10;89.30
11214;DHT22;5664;48.606;13.456;2024-01-16T15:27:46;18.10;89.30
11214;DHT22;5664;48.606;13.456;2024-01-16T15:30:13;18.10;89.50
11214;DHT22;5664;48.606;13.456;2024-01-16T15:32:39;18.10;89.80